Time;durP1;ratioP1;P1;durP2;ratioP2;P2;SDS_P1;SDS_P2;PMS_P1;PMS_P2;Temp;Humidity;BMP_temperature;BMP_pressure;BME280_temperature;BME280_humidity;BME280_pressure;Samples;Min_cycle;Max_cycle;Signal;HPM_P1;HPM_P2
2023/06/24 00:02:08;;;;;;;1.50;1.40;;;;;;;18.74;66.23;102468.91;4995711;28;20048;-83
2023/06/24 00:04:34;;;;;;;1.27;1.20;;;;;;;18.70;66.48;102472.66;5010270;28;20038;-83
2023/06/24 00:07:00;;;;;;;1.40;1.30;;;;;;;18.68;66.65;102473.66;5015062;28;20046;-83
2023/06/24 00:09:27;;;;;;;1.55;1.45;;;;;;;18.63;67.01;102470.38;5006079;28;20072;-83
2023/06/24 00:11:54;;;;;;;1.60;1.50;;;;;;;18.57;67.22;102475.06;4995653;28;20041;-83
2023/06/24 00:14:21;;;;;;;1.40;1.30;;;;;;;18.53;67.28;102473.47;4979554;28;20037;-84
2023/06/24 00:16:48;;;;;;;1.60;1.48;;;;;;;18.49;67.61;102479.84;4999166;28;20042;-84
2023/06/24 00:19:14;;;;;;;1.37;1.27;;;;;;;18.46;67.81;102487.97;5000234;28;20450;-83
2023/06/24 00:21:40;;;;;;;1.52;1.42;;;;;;;18.44;67.90;102489.81;4999626;28;20061;-83
2023/06/24 00:24:05;;;;;;;1.80;1.70;;;;;;;18.39;68.04;102486.53;4999612;28;20325;-83
2023/06/24 00:26:31;;;;;;;1.63;1.52;;;;;;;18.37;68.16;102496.34;4998782;28;20044;-83
2023/06/24 00:28:58;;;;;;;1.67;1.58;;;;;;;18.31;68.31;102481.59;4998767;28;20038;-84
2023/06/24 00:31:23;;;;;;;1.75;1.65;;;;;;;18.29;68.27;102485.25;4999551;28;20336;-84
2023/06/24 00:33:49;;;;;;;4.18;1.50;;;;;;;18.25;68.65;102492.50;5005495;28;20018;-83
2023/06/24 00:36:15;;;;;;;1.73;1.63;;;;;;;18.20;68.63;102482.09;4987609;28;20042;-83
2023/06/24 00:38:40;;;;;;;1.60;1.50;;;;;;;18.17;68.75;102484.91;4999043;28;20121;-83
2023/06/24 00:41:07;;;;;;;1.80;1.70;;;;;;;18.14;69.01;102486.84;4980622;28;20109;-83
2023/06/24 00:43:33;;;;;;;1.50;1.40;;;;;;;18.11;69.24;102484.34;4999142;28;20034;-83
2023/06/24 00:45:59;;;;;;;1.88;1.77;;;;;;;18.07;69.34;102478.31;4996221;28;20045;-83
2023/06/24 00:48:24;;;;;;;1.55;1.45;;;;;;;18.05;69.64;102481.97;4998968;28;20022;-83
2023/06/24 00:50:50;;;;;;;1.90;1.70;;;;;;;18.02;69.73;102477.66;4980252;28;20268;-83
2023/06/24 00:53:16;;;;;;;1.85;1.70;;;;;;;17.99;69.88;102481.31;4998371;28;20042;-84
2023/06/24 00:55:42;;;;;;;1.27;1.25;;;;;;;17.98;70.11;102473.44;4998306;28;20056;-83
2023/06/24 00:58:09;;;;;;;1.60;1.50;;;;;;;17.97;70.14;102469.03;4979954;28;20372;-83
2023/06/24 01:00:34;;;;;;;1.90;1.80;;;;;;;17.96;70.52;102477.94;4997653;28;20026;-84
2023/06/24 01:03:00;;;;;;;1.70;1.60;;;;;;;17.96;70.58;102485.91;4980614;28;20170;-83
2023/06/24 01:05:35;;;;;;;1.42;1.33;;;;;;;17.93;70.85;102476.28;5017104;28;20099;-83
2023/06/24 01:08:01;;;;;;;2.03;1.92;;;;;;;17.92;70.92;102473.69;5016515;28;20280;-83
2023/06/24 01:10:26;;;;;;;1.50;1.40;;;;;;;17.90;70.81;102476.44;4981742;28;20038;-83
2023/06/24 01:12:52;;;;;;;1.80;1.70;;;;;;;17.88;70.98;102474.78;4979471;28;20030;-83
2023/06/24 01:15:19;;;;;;;1.90;1.60;;;;;;;17.89;70.88;102476.50;4997673;28;20038;-83
2023/06/24 01:17:59;;;;;;;3.55;1.70;;;;;;;17.88;71.20;102464.16;4979644;28;20076;-83
2023/06/24 01:20:37;;;;;;;2.17;1.90;;;;;;;17.87;71.24;102463.31;4981033;28;20243;-83
2023/06/24 01:23:21;;;;;;;;;;;;;;;17.85;71.42;102457.22;4998797;28;20109;-83
2023/06/24 01:26:08;;;;;;;3.30;1.80;;;;;;;17.84;71.60;102456.34;4996579;28;20116;-83
2023/06/24 01:29:07;;;;;;;1.52;1.42;;;;;;;17.82;71.74;102460.84;4997147;28;20349;-83
2023/06/24 01:31:48;;;;;;;1.90;1.60;;;;;;;17.80;71.76;102452.09;4996843;28;20109;-83
2023/06/24 01:34:16;;;;;;;1.90;1.80;;;;;;;17.79;72.02;102450.41;5009562;28;20030;-83
2023/06/24 01:36:49;;;;;;;1.60;1.50;;;;;;;17.79;72.23;102452.16;5017795;28;20037;-83
2023/06/24 01:39:18;;;;;;;2.88;1.75;;;;;;;17.77;72.30;102456.69;5010357;28;20038;-83
2023/06/24 01:41:51;;;;;;;2.30;2.10;;;;;;;17.75;72.72;102450.59;4998329;28;20292;-83
2023/06/24 01:44:17;;;;;;;2.15;2.03;;;;;;;17.72;72.66;102448.94;4998222;28;20035;-83
2023/06/24 01:46:46;;;;;;;2.05;1.88;;;;;;;17.70;72.77;102444.63;4997837;28;20045;-83
2023/06/24 01:49:14;;;;;;;2.10;2.00;;;;;;;17.69;73.13;102446.44;4998163;28;20097;-83
2023/06/24 01:51:41;;;;;;;2.20;2.00;;;;;;;17.68;73.12;102446.50;4997913;28;20317;-83
2023/06/24 01:54:13;;;;;;;2.05;1.88;;;;;;;17.64;73.30;102456.38;4979883;28;20064;-83
2023/06/24 01:56:41;;;;;;;1.98;1.88;;;;;;;17.61;73.20;102453.88;4997636;28;20038;-83
2023/06/24 01:59:08;;;;;;;2.72;2.13;;;;;;;17.60;73.43;102454.78;4997498;28;20061;-83
2023/06/24 02:01:35;;;;;;;2.05;1.95;;;;;;;17.56;73.75;102451.44;4998064;28;20327;-82
2023/06/24 02:04:03;;;;;;;1.95;1.85;;;;;;;17.55;73.95;102444.38;5006929;28;20030;-81
2023/06/24 02:06:29;;;;;;;2.50;2.03;;;;;;;17.54;74.04;102442.69;5017355;28;20399;-82
2023/06/24 02:08:58;;;;;;;1.80;1.70;;;;;;;17.55;74.09;102446.19;4993947;28;20239;-81
2023/06/24 02:11:24;;;;;;;2.65;2.05;;;;;;;17.54;74.25;102441.84;4997735;28;20057;-81
2023/06/24 02:13:51;;;;;;;2.58;2.22;;;;;;;17.54;74.59;102441.84;4997102;28;20038;-81
2023/06/24 02:16:17;;;;;;;2.28;2.17;;;;;;;17.53;74.65;102442.75;4997485;28;20342;-82
2023/06/24 02:18:44;;;;;;;2.40;1.88;;;;;;;17.51;74.79;102441.97;4997454;28;20121;-82
2023/06/24 02:21:10;;;;;;;1.90;1.80;;;;;;;17.51;74.94;102441.97;4979550;28;20101;-82
2023/06/24 02:23:37;;;;;;;4.88;2.72;;;;;;;17.49;75.00;102438.53;4997482;28;20045;-82
2023/06/24 02:26:03;;;;;;;2.60;2.40;;;;;;;17.48;75.36;102440.28;4997386;28;20080;-83
2023/06/24 02:28:30;;;;;;;2.42;2.22;;;;;;;17.45;75.31;102436.00;4997302;28;20094;-83
2023/06/24 02:30:58;;;;;;;2.50;2.30;;;;;;;17.44;75.37;102426.38;4979339;28;20049;-83
2023/06/24 02:33:23;;;;;;;2.80;2.00;;;;;;;17.43;75.64;102434.38;5001394;28;20206;-83
2023/06/24 02:35:49;;;;;;;2.70;2.20;;;;;;;17.44;75.64;102439.59;5016323;28;20075;-83
2023/06/24 02:38:14;;;;;;;2.15;1.95;;;;;;;17.43;75.73;102435.22;5016611;28;20050;-84
2023/06/24 02:40:42;;;;;;;2.50;2.30;;;;;;;17.44;75.91;102430.78;4979253;28;20038;-83
2023/06/24 02:43:08;;;;;;;2.40;2.20;;;;;;;17.43;76.11;102421.97;4997037;28;20061;-83
2023/06/24 02:45:33;;;;;;;2.20;2.10;;;;;;;17.42;76.08;102422.88;4996890;28;20026;-83
2023/06/24 02:48:00;;;;;;;2.50;2.30;;;;;;;17.42;76.17;102424.69;4996112;28;20097;-83
2023/06/24 02:50:26;;;;;;;2.38;2.20;;;;;;;17.42;76.40;102416.75;4996748;28;20034;-83
2023/06/24 02:52:52;;;;;;;3.10;2.40;;;;;;;17.41;76.65;102415.91;4996227;28;20038;-83
2023/06/24 02:55:18;;;;;;;2.58;2.42;;;;;;;17.42;76.71;102417.59;4997206;28;20421;-84
2023/06/24 02:57:44;;;;;;;2.10;2.00;;;;;;;17.42;76.68;102419.38;4978883;28;20276;-83
2023/06/24 03:00:13;;;;;;;2.67;2.47;;;;;;;17.42;76.84;102422.88;4996920;28;20225;-83
2023/06/24 03:02:38;;;;;;;;;;;;;;;17.43;76.70;102421.13;4997320;28;20221;-83
2023/06/24 03:05:05;;;;;;;4.03;2.33;;;;;;;17.42;76.85;102416.75;5005112;28;19921;-84
2023/06/24 03:07:34;;;;;;;2.95;2.42;;;;;;;17.42;76.72;102419.38;4979192;28;20038;-83
2023/06/24 03:10:02;;;;;;;2.28;2.10;;;;;;;17.42;76.95;102419.38;4996041;28;20391;-84
2023/06/24 03:12:28;;;;;;;2.13;1.92;;;;;;;17.41;76.92;102417.69;4996609;28;20034;-84
2023/06/24 03:14:53;;;;;;;2.58;2.35;;;;;;;17.41;77.02;102421.19;4978441;28;20032;-83
2023/06/24 03:17:19;;;;;;;2.60;2.40;;;;;;;17.41;77.10;102425.63;4996589;28;20042;-83
2023/06/24 03:19:44;;;;;;;2.70;2.50;;;;;;;17.41;77.13;102417.69;4996308;28;20045;-83
2023/06/24 03:22:09;;;;;;;2.40;2.20;;;;;;;17.41;77.09;102418.53;4996063;28;20260;-83
2023/06/24 03:24:35;;;;;;;2.45;2.25;;;;;;;17.42;77.07;102424.69;4978880;28;20019;-83
2023/06/24 03:27:00;;;;;;;2.58;2.38;;;;;;;17.42;77.03;102425.53;4978013;28;20100;-83
2023/06/24 03:29:25;;;;;;;2.50;2.30;;;;;;;17.41;77.41;102423.84;4978714;28;20331;-83
2023/06/24 03:31:51;;;;;;;2.80;2.60;;;;;;;17.40;77.36;102422.09;4995565;28;20045;-83
2023/06/24 03:34:16;;;;;;;2.65;2.45;;;;;;;17.40;77.54;102422.09;5007605;28;20100;-83
2023/06/24 03:36:42;;;;;;;2.67;2.47;;;;;;;17.39;77.19;102414.22;4997996;28;20025;-83
2023/06/24 03:39:08;;;;;;;2.80;2.60;;;;;;;17.40;77.44;102419.47;5008814;28;20038;-83
2023/06/24 03:41:33;;;;;;;2.92;2.72;;;;;;;17.39;77.37;102419.53;4991498;28;20038;-83
2023/06/24 03:43:58;;;;;;;3.13;2.72;;;;;;;17.39;77.79;102414.22;4977964;28;20030;-83
2023/06/24 03:46:25;;;;;;;2.83;2.63;;;;;;;17.38;77.58;102423.13;4978494;28;20316;-83
2023/06/24 03:48:51;;;;;;;2.72;2.53;;;;;;;17.39;77.88;102419.53;4994993;28;20034;-84
2023/06/24 03:51:16;;;;;;;2.97;2.47;;;;;;;17.38;78.06;102423.97;4978472;28;20105;-83
2023/06/24 03:53:42;;;;;;;3.03;2.22;;;;;;;17.37;77.92;102422.25;4995729;28;20172;-84
2023/06/24 03:56:07;;;;;;;2.20;2.10;;;;;;;17.38;77.84;102428.41;4995677;28;20042;-83
2023/06/24 03:58:32;;;;;;;2.30;2.20;;;;;;;17.38;78.00;102423.13;4996174;28;20333;-84
2023/06/24 04:01:02;;;;;;;2.63;2.42;;;;;;;17.38;78.20;102428.41;4995253;28;20218;-83
2023/06/24 04:03:28;;;;;;;2.30;2.20;;;;;;;17.37;78.33;102432.84;5000778;28;20034;-83
2023/06/24 04:05:55;;;;;;;2.42;2.22;;;;;;;17.37;78.38;102429.31;5015202;28;20052;-84
2023/06/24 04:08:21;;;;;;;2.38;2.28;;;;;;;17.37;78.34;102432.84;5015555;28;20169;-84
2023/06/24 04:10:47;;;;;;;2.70;2.50;;;;;;;17.38;78.18;102434.56;5015114;28;20044;-84
2023/06/24 04:13:12;;;;;;;2.50;2.30;;;;;;;17.38;78.36;102431.91;5015454;28;20030;-84
2023/06/24 04:15:37;;;;;;;2.88;2.67;;;;;;;17.39;78.40;102424.81;5015515;28;20042;-83
2023/06/24 04:18:03;;;;;;;2.50;2.30;;;;;;;17.39;78.40;102427.47;5014859;28;20048;-83
2023/06/24 04:20:28;;;;;;;2.60;2.40;;;;;;;17.40;78.33;102430.03;5015622;28;20032;-83
2023/06/24 04:22:54;;;;;;;2.70;2.50;;;;;;;17.41;78.51;102428.28;5015026;28;20034;-84
2023/06/24 04:25:19;;;;;;;2.88;2.58;;;;;;;17.41;78.48;102428.28;5015630;28;20351;-83
2023/06/24 04:27:45;;;;;;;2.92;2.72;;;;;;;17.42;78.38;102425.53;5015404;28;20378;-83
2023/06/24 04:30:10;;;;;;;4.18;3.05;;;;;;;17.44;78.53;102436.06;5015165;28;20093;-84
2023/06/24 04:32:36;;;;;;;3.03;2.83;;;;;;;17.44;78.45;102444.91;5015119;28;20117;-83
2023/06/24 04:35:01;;;;;;;2.70;2.50;;;;;;;17.45;78.58;102443.94;4996955;28;20076;-83
2023/06/24 04:37:27;;;;;;;2.80;2.60;;;;;;;17.45;78.48;102446.59;4995559;28;20112;-83
2023/06/24 04:39:52;;;;;;;3.10;2.85;;;;;;;17.46;78.34;102450.97;4995177;28;20062;-83
2023/06/24 04:42:17;;;;;;;2.90;2.58;;;;;;;17.49;78.60;102446.47;4995515;28;20381;-84
2023/06/24 04:44:43;;;;;;;2.47;2.38;;;;;;;17.49;78.69;102446.47;4995323;28;20038;-83
2023/06/24 04:47:08;;;;;;;2.88;2.67;;;;;;;17.50;78.50;102451.72;4995034;28;20058;-83
2023/06/24 04:49:34;;;;;;;2.88;2.67;;;;;;;17.48;78.89;102448.25;4978116;28;20130;-83
2023/06/24 04:52:02;;;;;;;3.38;2.50;;;;;;;17.50;78.54;102453.47;4994866;28;20038;-83
2023/06/24 04:54:28;;;;;;;2.88;2.67;;;;;;;17.51;78.44;102444.63;4995300;28;20038;-83
2023/06/24 04:56:55;;;;;;;3.30;3.00;;;;;;;17.52;78.46;102446.31;4994785;28;20026;-83
2023/06/24 04:59:24;;;;;;;3.25;3.05;;;;;;;17.54;78.75;102447.13;4977752;28;20042;-84
2023/06/24 05:01:49;;;;;;;3.53;3.15;;;;;;;17.53;78.76;102448.91;4998477;28;20547;-83
2023/06/24 05:04:15;;;;;;;3.25;3.00;;;;;;;17.55;78.71;102451.50;5010411;28;20049;-83
2023/06/24 05:06:40;;;;;;;3.33;2.90;;;;;;;17.56;78.83;102456.72;5018570;28;20054;-83
2023/06/24 05:09:05;;;;;;;3.42;3.13;;;;;;;17.56;78.75;102451.44;4982589;28;20604;-83
2023/06/24 05:11:31;;;;;;;3.38;3.17;;;;;;;17.57;78.76;102454.94;4998939;28;20272;-83
2023/06/24 05:13:56;;;;;;;3.00;2.80;;;;;;;17.58;78.80;102462.81;4998411;28;20129;-83
2023/06/24 05:16:23;;;;;;;3.08;2.80;;;;;;;17.59;78.84;102461.91;4981355;28;20097;-83
2023/06/24 05:18:49;;;;;;;3.28;3.08;;;;;;;17.60;78.80;102460.94;4997988;28;20267;-84
2023/06/24 05:21:14;;;;;;;3.25;2.97;;;;;;;17.61;78.91;102453.88;4998619;28;20110;-84
2023/06/24 05:23:39;;;;;;;4.05;3.65;;;;;;;17.61;78.86;102448.59;4998724;28;20026;-83
2023/06/24 05:26:05;;;;;;;3.90;3.60;;;;;;;17.62;78.74;102448.50;4998042;28;20042;-83
2023/06/24 05:28:30;;;;;;;4.50;3.33;;;;;;;17.64;78.92;102453.72;4998676;28;20076;-84
2023/06/24 05:30:57;;;;;;;4.13;3.72;;;;;;;17.65;79.06;102453.66;4998216;28;20054;-83
2023/06/24 05:33:22;;;;;;;3.53;3.30;;;;;;;17.67;79.24;102456.25;5002369;28;20033;-83
2023/06/24 05:35:47;;;;;;;2.85;2.65;;;;;;;17.69;79.12;102469.44;5017344;28;20532;-84
2023/06/24 05:38:13;;;;;;;4.50;4.10;;;;;;;17.69;79.06;102467.63;5017939;28;20080;-83
2023/06/24 05:40:38;;;;;;;3.70;3.40;;;;;;;17.70;78.95;102477.31;4981351;28;20056;-83
2023/06/24 05:43:04;;;;;;;4.13;3.83;;;;;;;17.71;79.00;102479.00;4980267;28;20034;-84
2023/06/24 05:45:29;;;;;;;3.38;3.08;;;;;;;17.72;78.93;102477.22;4998260;28;20134;-83
2023/06/24 05:47:54;;;;;;;3.83;3.60;;;;;;;17.73;79.13;102474.50;4997863;28;20227;-84
2023/06/24 05:50:20;;;;;;;4.07;3.67;;;;;;;17.75;79.18;102480.59;4980687;28;20030;-84
2023/06/24 05:52:45;;;;;;;3.60;3.20;;;;;;;17.76;79.13;102473.53;4998058;28;20048;-83
2023/06/24 05:55:13;;;;;;;4.78;4.30;;;;;;;17.76;79.19;102476.19;4980199;28;20298;-84
2023/06/24 05:57:39;;;;;;;5.63;4.20;;;;;;;17.78;79.30;102475.16;4980480;28;20113;-83
2023/06/24 06:00:05;;;;;;;3.45;3.15;;;;;;;17.79;79.51;102478.66;4997428;28;20313;-84
2023/06/24 06:02:30;;;;;;;3.38;3.17;;;;;;;17.81;79.27;102482.13;4997913;28;20045;-84
2023/06/24 06:04:56;;;;;;;3.70;3.40;;;;;;;17.82;79.17;102486.47;5014042;28;20061;-84
2023/06/24 06:07:21;;;;;;;3.38;3.08;;;;;;;17.83;79.02;102483.78;4997674;28;20105;-84
2023/06/24 06:09:46;;;;;;;4.57;4.13;;;;;;;17.83;78.72;102477.63;4969235;28;20087;-84
2023/06/24 06:12:12;;;;;;;4.38;3.97;;;;;;;17.85;79.03;102478.44;4987418;28;20029;-84
2023/06/24 06:14:37;;;;;;;5.00;3.60;;;;;;;17.87;78.71;102484.53;4988248;28;20045;-84
2023/06/24 06:17:02;;;;;;;4.05;3.75;;;;;;;17.88;78.83;102486.22;4985743;28;20098;-84
2023/06/24 06:19:28;;;;;;;3.72;3.35;;;;;;;17.89;78.54;102480.00;4968089;28;20069;-84
2023/06/24 06:21:53;;;;;;;3.45;3.17;;;;;;;17.91;78.51;102486.09;4986954;28;20026;-84
2023/06/24 06:24:19;;;;;;;3.13;2.92;;;;;;;17.93;78.31;102486.88;4987098;28;20066;-84
2023/06/24 06:26:44;;;;;;;2.83;2.63;;;;;;;17.96;78.34;102480.59;4970826;28;20026;-84
2023/06/24 06:29:11;;;;;;;3.25;3.05;;;;;;;17.98;78.27;102481.38;4986533;28;20027;-83
2023/06/24 06:31:36;;;;;;;3.35;2.92;;;;;;;18.00;77.83;102479.53;4988802;28;20260;-84
2023/06/24 06:34:02;;;;;;;4.50;4.10;;;;;;;18.03;78.25;102476.75;4993589;28;20057;-84
2023/06/24 06:36:28;;;;;;;3.30;3.08;;;;;;;18.06;78.55;102479.22;4986833;28;20038;-84
2023/06/24 06:38:53;;;;;;;3.33;3.03;;;;;;;18.09;78.41;102483.53;4989703;28;20026;-84
2023/06/24 06:41:24;;;;;;;4.97;3.90;;;;;;;18.10;78.42;102483.47;4987000;28;20038;-84
2023/06/24 06:43:52;;;;;;;4.10;3.10;;;;;;;18.12;78.44;102486.91;4996903;28;20030;-84
2023/06/24 06:46:18;;;;;;;;;;;;;;;18.14;78.53;102485.03;4995360;28;20026;-83
2023/06/24 06:48:43;;;;;;;3.33;3.10;;;;;;;18.16;78.55;102483.19;4990116;28;20271;-84
2023/06/24 06:51:08;;;;;;;3.10;2.33;;;;;;;18.18;78.50;102481.31;4986728;28;20029;-84
2023/06/24 06:53:34;;;;;;;3.08;2.88;;;;;;;18.21;78.37;102488.28;4966669;28;20048;-84
2023/06/24 06:55:59;;;;;;;5.05;4.57;;;;;;;18.25;79.35;102489.00;4995818;28;20034;-84
2023/06/24 06:58:25;;;;;;;6.22;3.78;;;;;;;18.27;79.32;102487.97;4997453;28;20392;-84
2023/06/24 07:00:50;;;;;;;3.47;3.17;;;;;;;18.28;79.30;102480.88;4996832;28;20038;-84
2023/06/24 07:03:15;;;;;;;3.92;3.63;;;;;;;18.31;79.58;102483.41;4997700;28;20038;-83
2023/06/24 07:05:41;;;;;;;4.57;3.83;;;;;;;18.33;79.69;102487.69;4996833;28;20413;-84
2023/06/24 07:08:07;;;;;;;4.75;4.10;;;;;;;18.36;80.24;102484.91;5005838;28;20046;-84
2023/06/24 07:10:32;;;;;;;3.35;3.05;;;;;;;18.38;79.92;102485.69;4977409;28;20054;-84
2023/06/24 07:12:58;;;;;;;3.05;2.83;;;;;;;18.44;79.66;102478.38;4989756;28;20134;-84
2023/06/24 07:15:25;;;;;;;4.43;3.45;;;;;;;18.45;79.66;102491.56;4990653;28;20085;-84
2023/06/24 07:17:51;;;;;;;3.85;3.40;;;;;;;18.50;79.48;102486.00;4986060;28;20093;-84
2023/06/24 07:20:16;;;;;;;5.35;4.70;;;;;;;18.53;80.45;102480.56;4975001;28;20042;-84
2023/06/24 07:22:41;;;;;;;4.30;4.00;;;;;;;18.56;80.29;102488.41;4974929;28;20030;-84
2023/06/24 07:25:07;;;;;;;4.57;3.92;;;;;;;18.58;80.09;102490.03;4986021;28;20054;-84
2023/06/24 07:27:32;;;;;;;3.38;3.15;;;;;;;18.62;79.93;102488.09;4991135;28;20025;-84
2023/06/24 07:29:58;;;;;;;3.30;3.10;;;;;;;18.64;79.96;102483.56;4974112;28;20068;-84
2023/06/24 07:32:23;;;;;;;4.95;3.83;;;;;;;18.66;79.82;102470.22;4987609;28;20045;-84
2023/06/24 07:34:48;;;;;;;4.07;3.67;;;;;;;18.69;79.90;102478.88;4973656;28;20073;-84
2023/06/24 07:37:14;;;;;;;4.32;3.85;;;;;;;18.73;79.99;102483.09;4990331;28;20396;-84
2023/06/24 07:39:39;;;;;;;6.30;3.97;;;;;;;18.77;79.73;102487.34;4986134;28;20317;-84
2023/06/24 07:42:05;;;;;;;7.88;3.85;;;;;;;18.82;80.21;102478.31;4987378;28;20042;-84
2023/06/24 07:44:30;;;;;;;4.25;3.85;;;;;;;18.86;80.36;102479.88;4987397;28;20085;-84
2023/06/24 07:46:56;;;;;;;4.00;3.60;;;;;;;18.87;79.91;102486.94;5000499;28;20065;-84
2023/06/24 07:49:21;;;;;;;4.07;3.00;;;;;;;18.89;79.94;102483.25;4979862;28;20034;-84
2023/06/24 07:51:47;;;;;;;4.47;4.07;;;;;;;18.94;80.38;102485.69;4968954;28;20030;-84
2023/06/24 07:54:12;;;;;;;4.40;3.50;;;;;;;18.96;80.04;102486.47;4977696;28;20221;-84
2023/06/24 07:56:37;;;;;;;7.70;5.68;;;;;;;18.99;80.18;102487.16;4986127;28;20039;-84
2023/06/24 07:59:03;;;;;;;4.85;4.35;;;;;;;19.04;80.16;102492.22;4984451;28;20351;-84
2023/06/24 08:01:28;;;;;;;4.85;4.50;;;;;;;19.07;80.12;102484.13;4985625;28;20162;-84
2023/06/24 08:03:54;;;;;;;3.97;3.60;;;;;;;19.11;80.31;102483.03;4983413;28;20030;-84
2023/06/24 08:06:20;;;;;;;3.92;3.63;;;;;;;19.14;80.05;102480.22;4984214;28;20039;-84
2023/06/24 08:08:48;;;;;;;3.95;3.65;;;;;;;19.17;80.51;102488.03;4990638;28;20030;-84
2023/06/24 08:11:13;;;;;;;3.63;3.33;;;;;;;19.22;80.18;102481.63;4988098;28;20039;-84
2023/06/24 08:13:39;;;;;;;3.70;3.40;;;;;;;19.23;79.88;102473.59;4988631;28;20194;-84
2023/06/24 08:16:04;;;;;;;3.60;3.30;;;;;;;19.27;79.99;102472.47;4987002;28;20035;-84
2023/06/24 08:18:30;;;;;;;3.78;3.47;;;;;;;19.31;79.73;102481.16;4985880;28;20042;-84
2023/06/24 08:20:55;;;;;;;3.80;3.50;;;;;;;19.34;79.66;102476.53;4995374;28;20031;-84
2023/06/24 08:23:21;;;;;;;6.53;5.18;;;;;;;19.37;80.14;102476.41;5000238;28;20249;-84
2023/06/24 08:25:46;;;;;;;6.03;4.70;;;;;;;19.43;81.36;102485.84;4995058;28;20034;-84
2023/06/24 08:28:12;;;;;;;9.38;6.25;;;;;;;19.48;81.67;102481.16;4994086;28;20075;-84
2023/06/24 08:30:37;;;;;;;6.65;5.05;;;;;;;19.52;81.18;102487.16;4999723;28;20053;-84
2023/06/24 08:33:02;;;;;;;5.30;4.80;;;;;;;19.55;81.09;102481.66;5002586;28;20381;-84
2023/06/24 08:35:28;;;;;;;4.60;4.03;;;;;;;19.59;80.78;102491.19;5008150;28;20044;-84
2023/06/24 08:37:53;;;;;;;4.90;4.28;;;;;;;19.61;80.43;102484.00;5006494;28;20021;-84
2023/06/24 08:40:19;;;;;;;9.65;6.90;;;;;;;19.67;81.48;102477.50;5007800;28;20053;-84
2023/06/24 08:42:44;;;;;;;6.40;5.30;;;;;;;19.70;81.33;102479.97;5018885;28;20026;-84
2023/06/24 08:45:10;;;;;;;8.00;6.00;;;;;;;19.73;81.15;102474.53;5017379;28;20041;-84
2023/06/24 08:47:36;;;;;;;12.07;6.60;;;;;;;19.78;81.52;102471.66;5005917;28;20333;-84
2023/06/24 08:50:11;;;;;;;11.07;6.40;;;;;;;19.82;81.21;102481.19;5007354;28;20038;-84
2023/06/24 08:52:38;;;;;;;5.22;4.72;;;;;;;19.85;80.98;102473.91;5015744;28;20061;-84
2023/06/24 08:55:06;;;;;;;6.65;6.05;;;;;;;19.89;80.65;102474.59;5014992;28;20038;-84
2023/06/24 08:57:31;;;;;;;8.38;6.47;;;;;;;19.93;80.54;102478.78;5013179;28;20033;-84
2023/06/24 08:59:57;;;;;;;8.68;5.22;;;;;;;19.94;80.85;102465.41;5009268;28;20030;-84
2023/06/24 09:02:22;;;;;;;8.77;6.07;;;;;;;19.99;80.55;102465.16;5000256;28;20049;-84
2023/06/24 09:04:50;;;;;;;5.80;5.28;;;;;;;20.02;80.46;102464.13;5008051;28;20025;-84
2023/06/24 09:07:25;;;;;;;8.05;5.47;;;;;;;20.07;80.53;102467.41;5017146;28;20060;-84
2023/06/24 09:09:51;;;;;;;4.55;4.13;;;;;;;20.12;80.25;102473.34;4988694;28;20045;-84
2023/06/24 09:12:16;;;;;;;6.95;5.60;;;;;;;20.18;81.11;102477.47;5008459;28;20113;-84
2023/06/24 09:14:48;;;;;;;6.70;4.88;;;;;;;20.23;80.95;102481.56;5012957;28;20048;-84
2023/06/24 09:17:13;;;;;;;4.60;4.20;;;;;;;20.26;80.74;102476.06;5018314;28;20034;-84
2023/06/24 09:19:39;;;;;;;6.70;5.13;;;;;;;20.32;80.80;102478.41;5009395;28;20092;-84
2023/06/24 09:22:06;;;;;;;6.85;5.30;;;;;;;20.37;80.94;102475.47;5018403;28;20058;-84
2023/06/24 09:24:36;;;;;;;4.82;4.43;;;;;;;20.43;81.22;102475.13;5011501;28;20041;-84
2023/06/24 09:27:02;;;;;;;5.95;5.43;;;;;;;20.47;80.93;102462.50;5002052;28;20046;-84
2023/06/24 09:29:31;;;;;;;5.63;5.13;;;;;;;20.51;80.68;102467.56;5014482;28;20044;-84
2023/06/24 09:31:59;;;;;;;6.07;5.47;;;;;;;20.53;80.42;102467.47;5015648;28;20119;-84
2023/06/24 09:34:24;;;;;;;5.90;4.60;;;;;;;20.55;80.13;102459.41;4975949;28;20041;-84
2023/06/24 09:36:54;;;;;;;6.93;5.25;;;;;;;20.59;79.83;102475.13;4991361;28;20034;-84
2023/06/24 09:39:30;;;;;;;7.40;5.40;;;;;;;20.64;79.98;102456.25;4986176;28;20225;-84
2023/06/24 09:42:00;;;;;;;9.38;6.43;;;;;;;20.70;80.92;102462.09;5007340;28;20040;-84
2023/06/24 09:44:29;;;;;;;13.25;6.30;;;;;;;20.72;80.95;102464.66;5009427;28;20337;-84
2023/06/24 09:46:56;;;;;;;7.20;5.32;;;;;;;20.76;81.54;102460.88;4992113;28;20095;-84
2023/06/24 09:49:22;;;;;;;10.68;6.18;;;;;;;20.78;81.10;102466.97;4997010;28;20288;-84
2023/06/24 09:51:49;;;;;;;9.75;5.72;;;;;;;20.82;81.22;102462.31;4991037;28;20237;-84
2023/06/24 09:54:15;;;;;;;4.82;4.50;;;;;;;20.85;80.67;102464.81;4996543;28;20033;-84
2023/06/24 09:56:50;;;;;;;9.52;6.30;;;;;;;20.87;80.49;102465.56;4987250;28;20042;-84
2023/06/24 09:59:19;;;;;;;4.45;4.03;;;;;;;20.90;80.41;102466.25;5010214;28;20034;-84
2023/06/24 10:01:46;;;;;;;4.80;4.40;;;;;;;20.93;80.01;102453.69;5012153;28;20084;-84
2023/06/24 10:04:20;;;;;;;6.38;4.45;;;;;;;20.94;79.76;102460.72;4999479;28;20025;-84
2023/06/24 10:06:45;;;;;;;4.40;4.00;;;;;;;20.97;79.54;102466.72;4985837;28;20261;-84
2023/06/24 10:09:13;;;;;;;10.60;5.55;;;;;;;21.00;79.75;102463.03;5002045;28;20030;-84
2023/06/24 10:11:42;;;;;;;8.60;6.10;;;;;;;21.03;79.25;102457.53;5017681;28;20089;-84
2023/06/24 10:14:07;;;;;;;6.32;4.95;;;;;;;21.06;78.93;102460.00;5003463;28;20062;-84
2023/06/24 10:16:33;;;;;;;6.63;5.07;;;;;;;21.09;78.86;102455.34;4974580;28;20022;-84
2023/06/24 10:19:03;;;;;;;5.47;4.28;;;;;;;21.11;78.64;102452.59;5011013;28;20225;-84
2023/06/24 10:21:50;;;;;;;4.57;4.15;;;;;;;21.15;78.61;102458.59;5016814;28;20096;-84
2023/06/24 10:24:32;;;;;;;5.72;4.95;;;;;;;21.17;79.22;102452.22;5015322;28;20038;-84
2023/06/24 10:27:07;;;;;;;5.15;3.80;;;;;;;21.22;78.90;102451.94;5009117;28;20061;-85
2023/06/24 10:29:37;;;;;;;5.38;4.88;;;;;;;21.27;78.76;102450.72;4997196;28;20088;-85
2023/06/24 10:32:04;;;;;;;5.95;4.40;;;;;;;21.29;78.38;102450.63;4995470;28;20178;-85
2023/06/24 10:34:40;;;;;;;6.53;4.55;;;;;;;21.30;78.47;102452.31;5000740;28;20088;-85
2023/06/24 10:37:24;;;;;;;5.70;5.18;;;;;;;21.35;78.58;102449.41;4978629;28;20026;-85
2023/06/24 10:39:57;;;;;;;6.75;5.20;;;;;;;21.39;78.57;102457.13;4975076;28;20038;-85
2023/06/24 10:42:41;;;;;;;5.60;5.10;;;;;;;21.40;77.63;102441.97;4986756;28;20073;-85
2023/06/24 10:45:09;;;;;;;4.13;3.72;;;;;;;21.42;77.47;102443.59;4988829;28;20045;-85
2023/06/24 10:47:37;;;;;;;5.82;4.35;;;;;;;21.46;77.01;102449.63;4994184;28;20048;-85
2023/06/24 10:50:03;;;;;;;5.55;4.90;;;;;;;21.49;76.54;102441.44;5006550;28;20445;-85
2023/06/24 10:52:29;;;;;;;5.63;4.03;;;;;;;21.51;76.16;102434.22;4992611;28;20372;-85
2023/06/24 10:54:57;;;;;;;5.53;3.78;;;;;;;21.56;76.46;102437.47;4989428;28;20034;-85
2023/06/24 10:57:24;;;;;;;5.43;4.10;;;;;;;21.62;76.31;102437.06;4997683;28;20030;-85
2023/06/24 10:59:51;;;;;;;4.85;4.07;;;;;;;21.66;76.44;102435.06;5007503;28;20033;-85
2023/06/24 11:02:18;;;;;;;11.88;5.47;;;;;;;21.70;75.70;102433.06;4979973;28;20021;-86
2023/06/24 11:04:44;;;;;;;8.27;5.07;;;;;;;21.73;75.46;102441.72;5016183;28;20053;-85
2023/06/24 11:07:10;;;;;;;4.72;4.32;;;;;;;21.76;74.93;102435.34;5016248;28;20337;-85
2023/06/24 11:09:35;;;;;;;4.90;4.22;;;;;;;21.79;75.20;102435.16;4990805;28;20064;-85
2023/06/24 11:12:03;;;;;;;7.22;4.35;;;;;;;21.78;74.87;102428.97;4996525;28;20367;-85
2023/06/24 11:14:28;;;;;;;3.63;3.33;;;;;;;21.80;74.64;102429.72;5002076;28;20045;-85
2023/06/24 11:16:54;;;;;;;5.90;4.65;;;;;;;21.83;75.03;102428.69;5006695;28;20034;-85
2023/06/24 11:19:19;;;;;;;3.50;3.15;;;;;;;21.86;74.79;102423.13;4989403;28;20038;-85
2023/06/24 11:21:45;;;;;;;3.65;3.35;;;;;;;21.91;74.63;102422.84;4998541;28;20098;-85
2023/06/24 11:24:11;;;;;;;5.75;3.78;;;;;;;21.94;74.56;102426.19;4994931;28;20041;-85
2023/06/24 11:26:37;;;;;;;5.63;4.45;;;;;;;22.00;73.55;102422.28;4998293;28;20099;-85